createdAt,value
2018-08-02T00:00:32.520Z,47.40
2018-08-02T00:03:00.677Z,47.10
2018-08-02T00:05:28.824Z,47.00
2018-08-02T00:07:56.965Z,46.80
2018-08-02T00:10:25.145Z,46.70
2018-08-02T00:12:53.288Z,46.60
2018-08-02T00:15:21.440Z,46.60
2018-08-02T00:17:49.539Z,46.40
2018-08-02T00:20:17.672Z,46.30
2018-08-02T00:22:45.787Z,46.20
2018-08-02T00:25:13.908Z,46.10
2018-08-02T00:27:42.056Z,46.00
2018-08-02T00:30:10.208Z,46.00
2018-08-02T00:32:38.340Z,45.80
2018-08-02T00:35:06.448Z,45.80
2018-08-02T00:37:34.590Z,45.70
2018-08-02T00:40:02.708Z,45.70
2018-08-02T00:42:30.824Z,45.60
2018-08-02T00:44:59.001Z,45.60
2018-08-02T00:47:27.131Z,45.40
2018-08-02T00:49:55.277Z,45.50
2018-08-02T00:52:23.472Z,45.40
2018-08-02T00:54:51.658Z,45.30
2018-08-02T00:57:19.819Z,45.30
2018-08-02T00:59:47.953Z,45.20
2018-08-02T01:02:16.055Z,45.20
2018-08-02T01:04:44.345Z,45.10
2018-08-02T01:07:12.485Z,45.10
2018-08-02T01:09:40.608Z,45.10
2018-08-02T01:12:08.752Z,45.10
2018-08-02T01:14:36.871Z,45.00
2018-08-02T01:17:05.000Z,44.90
2018-08-02T01:19:33.160Z,44.90
2018-08-02T01:22:01.281Z,44.90
2018-08-02T01:24:29.533Z,44.80
2018-08-02T01:26:57.748Z,44.70
2018-08-02T01:29:25.941Z,44.70
2018-08-02T01:31:54.078Z,44.70
2018-08-02T01:34:22.242Z,44.70
2018-08-02T01:36:50.408Z,44.60
2018-08-02T01:39:18.552Z,44.80
2018-08-02T01:41:46.700Z,44.60
2018-08-02T01:44:26.168Z,44.60
2018-08-02T01:46:54.335Z,44.60
2018-08-02T01:49:22.521Z,44.60
2018-08-02T01:51:50.651Z,44.50
2018-08-02T01:54:18.801Z,44.50
2018-08-02T01:56:46.964Z,44.40
2018-08-02T01:59:15.198Z,44.50
2018-08-02T02:01:43.333Z,44.50
2018-08-02T02:04:11.480Z,44.40
2018-08-02T02:06:39.636Z,44.40
2018-08-02T02:09:08.133Z,44.40
2018-08-02T02:11:36.480Z,44.30
2018-08-02T02:14:04.684Z,44.30
2018-08-02T02:16:33.127Z,44.30
2018-08-02T02:19:01.442Z,44.30
2018-08-02T02:21:29.620Z,44.30
2018-08-02T02:23:57.765Z,44.30
2018-08-02T02:26:25.924Z,44.30
2018-08-02T02:28:54.093Z,44.20
2018-08-02T02:31:22.284Z,44.10
2018-08-02T02:36:18.468Z,44.00
2018-08-02T02:38:46.664Z,44.00
2018-08-02T02:41:14.820Z,43.90
2018-08-02T02:43:42.980Z,43.80
2018-08-02T02:46:11.128Z,43.70
2018-08-02T02:48:39.304Z,43.70
2018-08-02T02:53:35.400Z,43.60
2018-08-02T02:56:03.622Z,43.60
2018-08-02T02:58:32.104Z,43.50
2018-08-02T03:01:00.252Z,43.40
2018-08-02T03:03:28.442Z,43.50
2018-08-02T03:05:56.853Z,43.40
2018-08-02T03:08:25.027Z,43.40
2018-08-02T03:10:53.285Z,43.40
2018-08-02T03:13:21.703Z,43.40
2018-08-02T03:15:49.857Z,43.40
2018-08-02T03:18:18.036Z,43.40
2018-08-02T03:20:46.219Z,43.40
2018-08-02T03:23:14.380Z,43.40
2018-08-02T03:25:42.555Z,43.40
2018-08-02T03:28:10.736Z,43.40
2018-08-02T03:30:38.892Z,43.20
2018-08-02T03:33:07.222Z,43.20
2018-08-02T03:35:35.448Z,43.20
2018-08-02T03:38:03.651Z,43.30
2018-08-02T03:40:31.820Z,43.30
2018-08-02T03:42:59.988Z,43.80
2018-08-02T03:45:28.356Z,43.20
2018-08-02T03:47:56.540Z,43.30
2018-08-02T03:50:24.780Z,43.30
2018-08-02T03:55:21.172Z,43.30
2018-08-02T03:57:49.380Z,43.10
2018-08-02T04:00:17.588Z,43.20
2018-08-02T04:05:14.267Z,43.20
2018-08-02T04:07:42.467Z,43.20
2018-08-02T04:10:10.611Z,43.10
2018-08-02T04:12:38.797Z,43.10
2018-08-02T04:15:08.457Z,43.00
2018-08-02T04:17:36.519Z,43.00
2018-08-02T04:22:32.751Z,43.50
2018-08-02T04:25:00.912Z,43.00
2018-08-02T04:27:29.036Z,43.40
2018-08-02T04:29:57.182Z,43.00
2018-08-02T04:32:25.326Z,42.90
2018-08-02T04:34:53.491Z,42.80
2018-08-02T04:37:21.735Z,42.70
2018-08-02T04:39:49.884Z,42.70
2018-08-02T04:42:18.025Z,42.80
2018-08-02T04:44:46.197Z,42.70
2018-08-02T04:47:14.357Z,42.60
2018-08-02T04:49:42.540Z,42.60
2018-08-02T04:52:10.717Z,42.60
2018-08-02T04:54:38.940Z,42.60
2018-08-02T04:57:07.112Z,42.50
2018-08-02T04:59:35.308Z,42.50
2018-08-02T05:02:03.496Z,42.40
2018-08-02T05:04:31.648Z,42.40
2018-08-02T05:06:59.902Z,42.30
2018-08-02T05:09:28.056Z,42.30
2018-08-02T05:11:56.203Z,42.20
2018-08-02T05:14:24.321Z,42.30
2018-08-02T05:16:52.443Z,42.20
2018-08-02T05:19:20.592Z,42.20
2018-08-02T05:21:48.746Z,42.10
2018-08-02T05:24:16.916Z,42.20
2018-08-02T05:26:45.094Z,42.20
2018-08-02T05:29:13.328Z,42.20
2018-08-02T05:31:41.756Z,42.10
2018-08-02T05:36:39.206Z,42.10
2018-08-02T05:39:08.273Z,42.00
2018-08-02T05:41:36.708Z,41.90
2018-08-02T05:44:05.224Z,41.80
2018-08-02T05:46:33.383Z,41.80
2018-08-02T05:49:01.497Z,41.80
2018-08-02T05:51:29.681Z,41.70
2018-08-02T05:53:58.001Z,41.80
2018-08-02T05:56:26.121Z,41.70
2018-08-02T05:58:54.371Z,41.50
2018-08-02T06:01:22.752Z,41.60
2018-08-02T06:03:51.248Z,41.70
2018-08-02T06:06:19.408Z,41.80
2018-08-02T06:08:47.604Z,41.80
2018-08-02T06:11:15.800Z,41.80
2018-08-02T06:13:43.996Z,41.70
2018-08-02T06:16:12.204Z,41.70
2018-08-02T06:21:08.272Z,41.40
2018-08-02T06:23:36.424Z,41.30
2018-08-02T06:26:04.561Z,41.30
2018-08-02T06:28:32.673Z,41.20
2018-08-02T06:31:00.845Z,41.30
2018-08-02T06:33:28.992Z,41.10
2018-08-02T06:38:25.658Z,41.20
2018-08-02T06:40:53.952Z,41.20
2018-08-02T06:43:22.152Z,41.10
2018-08-02T06:45:50.347Z,41.20
2018-08-02T06:48:17.504Z,41.00
2018-08-02T06:50:45.637Z,41.00
2018-08-02T06:53:13.861Z,41.00
2018-08-02T06:55:41.975Z,41.00
2018-08-02T06:58:10.197Z,41.20
2018-08-02T07:00:38.324Z,40.70
2018-08-02T07:03:06.448Z,40.50
2018-08-02T07:05:34.621Z,40.40
2018-08-02T07:08:02.760Z,40.50
2018-08-02T07:10:30.918Z,40.30
2018-08-02T07:12:59.088Z,40.20
2018-08-02T07:15:27.236Z,40.10
2018-08-02T07:17:55.368Z,39.90
2018-08-02T07:20:23.528Z,39.80
2018-08-02T07:22:51.768Z,39.60
2018-08-02T07:27:47.911Z,39.10
2018-08-02T07:32:44.073Z,38.90
2018-08-02T07:35:12.238Z,38.90
2018-08-02T07:37:40.397Z,38.90
2018-08-02T07:40:08.623Z,38.70
2018-08-02T07:42:36.789Z,38.60
2018-08-02T07:45:05.256Z,38.70
2018-08-02T07:47:33.452Z,38.60
2018-08-02T07:50:01.663Z,38.50
2018-08-02T07:52:29.824Z,38.20
2018-08-02T07:54:57.976Z,37.90
2018-08-02T07:57:26.102Z,37.70
2018-08-02T07:59:54.236Z,37.60
2018-08-02T08:02:22.403Z,37.40
2018-08-02T08:04:50.596Z,37.40
2018-08-02T08:07:18.721Z,37.40
2018-08-02T08:09:46.924Z,37.10
2018-08-02T08:12:15.119Z,37.10
2018-08-02T08:14:43.264Z,36.90
2018-08-02T08:17:11.470Z,36.70
2018-08-02T08:19:39.630Z,36.20
2018-08-02T08:22:07.888Z,35.90
2018-08-02T08:24:36.067Z,35.70
2018-08-02T08:27:04.247Z,35.40
2018-08-02T08:29:32.446Z,35.30
2018-08-02T08:32:00.595Z,35.10
2018-08-02T08:34:28.748Z,35.00
2018-08-02T08:36:56.917Z,34.70
2018-08-02T08:39:25.075Z,34.60
2018-08-02T08:41:53.412Z,34.50
2018-08-02T08:44:21.587Z,34.20
2018-08-02T08:46:49.767Z,33.80
2018-08-02T08:49:27.993Z,33.60
2018-08-02T08:51:56.421Z,33.50
2018-08-02T08:54:24.607Z,33.20
2018-08-02T08:56:52.752Z,33.10
2018-08-02T08:59:32.493Z,32.90
2018-08-02T09:02:00.659Z,32.80
2018-08-02T09:04:28.912Z,32.60
2018-08-02T09:06:57.075Z,32.20
2018-08-02T09:09:25.276Z,32.00
2018-08-02T09:11:53.439Z,31.80
2018-08-02T09:14:21.594Z,31.60
2018-08-02T09:16:49.720Z,31.40
2018-08-02T09:19:17.884Z,31.20
2018-08-02T09:21:46.077Z,30.90
2018-08-02T09:24:14.259Z,30.80
2018-08-02T09:26:42.588Z,30.50
2018-08-02T09:29:10.715Z,30.40
2018-08-02T09:31:38.853Z,30.10
2018-08-02T09:34:07.036Z,30.00
2018-08-02T09:36:35.189Z,29.90
2018-08-02T09:39:04.649Z,29.70
2018-08-02T09:41:32.834Z,29.60
2018-08-02T09:44:01.012Z,29.50
2018-08-02T09:46:29.240Z,29.30
2018-08-02T09:48:57.340Z,29.10
2018-08-02T09:51:25.471Z,28.90
2018-08-02T09:53:53.625Z,28.80
2018-08-02T09:56:21.784Z,28.60
2018-08-02T09:58:49.949Z,28.60
2018-08-02T10:01:22.346Z,28.40
2018-08-02T10:03:50.792Z,28.30
2018-08-02T10:06:18.932Z,28.20
2018-08-02T10:08:47.081Z,28.10
2018-08-02T10:11:15.272Z,28.00
2018-08-02T10:13:43.411Z,27.90
2018-08-02T10:16:11.567Z,27.70
2018-08-02T10:18:39.677Z,27.60
2018-08-02T10:21:07.808Z,27.50
2018-08-02T10:23:35.932Z,27.40
2018-08-02T10:26:04.061Z,27.30
2018-08-02T10:28:32.195Z,27.20
2018-08-02T10:31:00.443Z,27.00
2018-08-02T10:33:28.523Z,27.10
2018-08-02T10:35:56.652Z,27.50
2018-08-02T10:38:24.768Z,27.80
2018-08-02T10:40:52.864Z,28.30
2018-08-02T10:43:21.013Z,28.60
2018-08-02T10:45:49.172Z,28.70
2018-08-02T10:48:17.383Z,28.20
2018-08-02T10:50:45.543Z,27.70
2018-08-02T10:53:13.651Z,27.20
2018-08-02T10:55:41.817Z,26.90
2018-08-02T10:58:09.974Z,26.70
2018-08-02T11:00:38.170Z,26.50
2018-08-02T11:03:06.324Z,26.30
2018-08-02T11:05:34.553Z,26.20
2018-08-02T11:08:02.672Z,26.20
2018-08-02T11:10:30.828Z,26.00
2018-08-02T11:12:58.915Z,25.90
2018-08-02T11:15:27.074Z,25.80
2018-08-02T11:17:55.350Z,25.70
2018-08-02T11:20:23.496Z,25.50
2018-08-02T11:22:51.729Z,25.40
2018-08-02T11:25:19.833Z,25.30
2018-08-02T11:27:47.970Z,25.20
2018-08-02T11:30:16.117Z,25.10
2018-08-02T11:32:44.434Z,25.20
2018-08-02T11:35:12.588Z,25.00
2018-08-02T11:37:40.783Z,24.80
2018-08-02T11:40:09.167Z,24.60
2018-08-02T11:42:37.385Z,24.40
2018-08-02T11:45:05.687Z,24.40
2018-08-02T11:47:33.912Z,24.30
2018-08-02T11:50:02.053Z,24.30
2018-08-02T11:52:30.218Z,24.30
2018-08-02T11:54:58.557Z,24.20
2018-08-02T11:57:26.795Z,24.10
2018-08-02T11:59:54.847Z,24.20
2018-08-02T12:02:23.001Z,24.10
2018-08-02T12:04:51.232Z,24.00
2018-08-02T12:07:19.341Z,23.90
2018-08-02T12:09:47.590Z,23.80
2018-08-02T12:12:15.932Z,23.80
2018-08-02T12:14:44.149Z,23.80
2018-08-02T12:17:12.272Z,23.70
2018-08-02T12:19:40.453Z,23.70
2018-08-02T12:22:08.616Z,23.60
2018-08-02T12:24:37.023Z,23.50
2018-08-02T12:27:05.372Z,23.40
2018-08-02T12:29:33.513Z,23.40
2018-08-02T12:32:01.640Z,23.30
2018-08-02T12:34:29.867Z,23.30
2018-08-02T12:36:58.043Z,23.20
2018-08-02T12:39:26.236Z,23.20
2018-08-02T12:41:54.411Z,23.10
2018-08-02T12:44:22.607Z,23.10
2018-08-02T12:46:50.768Z,23.00
2018-08-02T12:49:18.940Z,23.00
2018-08-02T12:51:47.079Z,23.00
2018-08-02T12:54:15.239Z,22.90
2018-08-02T12:56:43.344Z,22.90
2018-08-02T12:59:11.520Z,22.90
2018-08-02T13:01:39.680Z,22.80
2018-08-02T13:04:07.849Z,22.80
2018-08-02T13:06:36.012Z,22.80
2018-08-02T13:09:06.070Z,22.80
2018-08-02T13:11:34.183Z,22.80
2018-08-02T13:14:03.300Z,22.70
2018-08-02T13:16:31.817Z,22.80
2018-08-02T13:19:00.064Z,22.80
2018-08-02T13:21:28.329Z,23.20
2018-08-02T13:23:56.475Z,22.80
2018-08-02T13:26:24.631Z,22.70
2018-08-02T13:28:52.997Z,22.70
2018-08-02T13:31:21.152Z,22.70
2018-08-02T13:33:49.685Z,22.80
2018-08-02T13:36:18.231Z,22.70
2018-08-02T13:38:46.791Z,22.90
2018-08-02T13:41:14.925Z,22.90
2018-08-02T13:43:43.180Z,22.90
2018-08-02T13:46:11.385Z,22.90
2018-08-02T13:48:39.909Z,22.90
2018-08-02T13:51:08.388Z,22.90
2018-08-02T13:53:36.591Z,22.80
2018-08-02T13:56:04.901Z,22.90
2018-08-02T13:58:33.327Z,22.80
2018-08-02T14:01:01.452Z,22.80
2018-08-02T14:03:29.647Z,22.80
2018-08-02T14:05:57.825Z,23.00
2018-08-02T14:08:25.964Z,23.10
2018-08-02T14:10:54.080Z,23.10
2018-08-02T14:13:22.281Z,23.10
2018-08-02T14:15:50.539Z,23.20
2018-08-02T14:18:18.721Z,23.20
2018-08-02T14:20:46.880Z,23.20
2018-08-02T14:23:15.329Z,23.20
2018-08-02T14:25:43.489Z,23.30
2018-08-02T14:28:11.691Z,23.40
2018-08-02T14:30:39.837Z,23.40
2018-08-02T14:33:08.033Z,23.50
2018-08-02T14:35:36.224Z,23.50
2018-08-02T14:38:04.368Z,23.70
2018-08-02T14:40:32.657Z,23.80
2018-08-02T14:43:00.914Z,23.80
2018-08-02T14:45:29.033Z,23.90
2018-08-02T14:47:57.225Z,23.80
2018-08-02T14:50:25.379Z,24.00
2018-08-02T14:52:53.548Z,24.10
2018-08-02T14:55:21.759Z,24.20
2018-08-02T14:57:49.856Z,24.30
2018-08-02T15:00:18.033Z,24.40
2018-08-02T15:02:46.204Z,24.50
2018-08-02T15:05:14.372Z,24.60
2018-08-02T15:07:42.596Z,24.50
2018-08-02T15:10:10.778Z,24.50
2018-08-02T15:12:38.994Z,24.60
2018-08-02T15:15:07.145Z,24.60
2018-08-02T15:17:35.268Z,24.70
2018-08-02T15:20:03.487Z,24.80
2018-08-02T15:22:31.675Z,24.90
2018-08-02T15:24:59.844Z,25.00
2018-08-02T15:27:28.063Z,25.10
2018-08-02T15:29:56.264Z,25.10
2018-08-02T15:32:24.413Z,25.10
2018-08-02T15:34:52.608Z,25.20
2018-08-02T15:37:20.760Z,25.20
2018-08-02T15:39:48.903Z,25.30
2018-08-02T15:42:17.076Z,25.40
2018-08-02T15:44:45.207Z,25.50
2018-08-02T15:47:13.344Z,25.60
2018-08-02T15:49:47.949Z,25.80
2018-08-02T15:52:16.134Z,25.90
2018-08-02T15:54:44.301Z,26.00
2018-08-02T15:57:12.468Z,26.10
2018-08-02T15:59:40.652Z,26.20
2018-08-02T16:02:08.821Z,26.20
2018-08-02T16:04:36.968Z,26.30
2018-08-02T16:07:05.119Z,26.40
2018-08-02T16:09:33.291Z,26.50
2018-08-02T16:12:01.461Z,26.40
2018-08-02T16:14:29.639Z,26.50
2018-08-02T16:16:57.784Z,26.60
2018-08-02T16:19:25.969Z,26.60
2018-08-02T16:21:54.105Z,26.60
2018-08-02T16:24:22.264Z,26.70
2018-08-02T16:26:50.388Z,26.80
2018-08-02T16:29:18.543Z,26.80
2018-08-02T16:31:46.725Z,26.90
2018-08-02T16:34:14.899Z,26.90
2018-08-02T16:36:43.120Z,26.90
2018-08-02T16:39:11.820Z,27.10
2018-08-02T16:41:40.128Z,27.30
2018-08-02T16:44:09.175Z,27.40
2018-08-02T16:46:37.410Z,27.50
2018-08-02T16:49:05.884Z,27.60
2018-08-02T16:51:34.240Z,27.60
2018-08-02T16:54:02.532Z,27.60
2018-08-02T16:56:30.733Z,27.60
2018-08-02T16:58:58.894Z,27.70
2018-08-02T17:01:27.336Z,27.90
2018-08-02T17:03:55.503Z,28.00
2018-08-02T17:06:23.919Z,28.00
2018-08-02T17:08:52.048Z,28.10
2018-08-02T17:11:20.473Z,28.10
2018-08-02T17:13:48.637Z,28.10
2018-08-02T17:16:16.790Z,28.20
2018-08-02T17:18:44.934Z,28.20
2018-08-02T17:21:13.086Z,28.30
2018-08-02T17:23:41.332Z,28.30
2018-08-02T17:26:09.518Z,28.30
2018-08-02T17:28:37.726Z,28.40
2018-08-02T17:31:05.996Z,28.40
2018-08-02T17:33:34.164Z,28.50
2018-08-02T17:36:02.345Z,28.50
2018-08-02T17:38:30.530Z,28.50
2018-08-02T17:40:58.672Z,28.60
2018-08-02T17:43:26.815Z,28.70
2018-08-02T17:45:54.975Z,28.80
2018-08-02T17:48:23.132Z,28.80
2018-08-02T17:50:51.284Z,28.70
2018-08-02T17:53:19.411Z,28.90
2018-08-02T17:55:47.634Z,28.90
2018-08-02T17:58:15.793Z,29.00
2018-08-02T18:00:43.961Z,28.90
2018-08-02T18:03:12.112Z,29.00
2018-08-02T18:05:40.306Z,29.10
2018-08-02T18:08:08.468Z,29.10
2018-08-02T18:10:36.666Z,29.20
2018-08-02T18:13:04.831Z,29.20
2018-08-02T18:15:33.088Z,29.30
2018-08-02T18:18:01.269Z,29.50
2018-08-02T18:20:29.448Z,29.40
2018-08-02T18:22:57.610Z,29.50
2018-08-02T18:25:25.792Z,29.60
2018-08-02T18:27:53.993Z,29.60
2018-08-02T18:30:22.180Z,29.60
2018-08-02T18:32:50.441Z,29.80
2018-08-02T18:35:18.617Z,29.80
2018-08-02T18:37:46.849Z,29.90
2018-08-02T18:40:15.059Z,30.00
2018-08-02T18:42:43.330Z,30.00
2018-08-02T18:45:11.530Z,30.10
2018-08-02T18:47:39.736Z,30.10
2018-08-02T18:50:07.925Z,30.20
2018-08-02T18:52:36.123Z,30.30
2018-08-02T18:55:04.318Z,30.50
2018-08-02T18:57:32.489Z,30.50
2018-08-02T19:00:00.736Z,30.50
2018-08-02T19:02:29.045Z,30.60
2018-08-02T19:04:57.193Z,30.70
2018-08-02T19:07:25.380Z,30.80
2018-08-02T19:09:53.669Z,30.90
2018-08-02T19:12:21.941Z,31.00
2018-08-02T19:14:50.057Z,31.10
2018-08-02T19:17:18.184Z,31.20
2018-08-02T19:19:46.362Z,31.30
2018-08-02T19:22:14.582Z,31.50
2018-08-02T19:24:42.795Z,31.50
2018-08-02T19:27:10.977Z,31.60
2018-08-02T19:29:39.161Z,31.80
2018-08-02T19:32:07.370Z,31.90
2018-08-02T19:34:35.518Z,31.90
2018-08-02T19:37:03.721Z,32.00
2018-08-02T19:39:31.945Z,32.10
2018-08-02T19:42:00.186Z,32.10
2018-08-02T19:44:28.466Z,32.30
2018-08-02T19:46:56.705Z,32.40
2018-08-02T19:49:24.968Z,32.50
2018-08-02T19:51:53.123Z,32.50
2018-08-02T19:54:21.356Z,32.60
2018-08-02T19:56:49.519Z,32.70
2018-08-02T19:59:17.717Z,32.70
2018-08-02T20:01:45.939Z,32.90
2018-08-02T20:04:14.114Z,33.00
2018-08-02T20:06:42.383Z,33.10
2018-08-02T20:09:11.571Z,33.10
2018-08-02T20:11:40.192Z,33.20
2018-08-02T20:14:08.550Z,33.30
2018-08-02T20:16:36.892Z,33.30
2018-08-02T20:19:05.097Z,34.10
2018-08-02T20:21:33.491Z,33.50
2018-08-02T20:24:01.639Z,33.60
2018-08-02T20:26:29.817Z,33.60
2018-08-02T20:28:57.991Z,33.70
2018-08-02T20:31:26.225Z,33.80
2018-08-02T20:33:54.589Z,33.80
2018-08-02T20:36:22.745Z,33.80
2018-08-02T20:38:50.933Z,33.90
2018-08-02T20:41:19.112Z,34.10
2018-08-02T20:43:47.259Z,34.10
2018-08-02T20:46:15.468Z,34.20
2018-08-02T20:48:43.618Z,34.20
2018-08-02T20:51:11.890Z,34.30
2018-08-02T20:53:40.057Z,34.30
2018-08-02T20:56:08.341Z,34.40
2018-08-02T20:58:36.513Z,34.50
2018-08-02T21:01:04.702Z,34.50
2018-08-02T21:03:32.885Z,34.60
2018-08-02T21:06:01.039Z,34.70
2018-08-02T21:08:29.275Z,34.80
2018-08-02T21:10:57.420Z,34.80
2018-08-02T21:13:25.560Z,34.90
2018-08-02T21:15:53.738Z,35.00
2018-08-02T21:18:21.877Z,35.00
2018-08-02T21:20:50.033Z,35.00
2018-08-02T21:23:18.235Z,35.20
2018-08-02T21:25:46.417Z,35.20
2018-08-02T21:28:14.590Z,35.20
2018-08-02T21:30:42.786Z,35.40
2018-08-02T21:33:11.013Z,35.30
2018-08-02T21:35:39.289Z,35.40
2018-08-02T21:38:07.442Z,35.40
2018-08-02T21:40:35.613Z,35.50
2018-08-02T21:43:03.839Z,35.50
2018-08-02T21:45:32.153Z,35.60
2018-08-02T21:48:00.319Z,35.60
2018-08-02T21:50:28.453Z,35.70
2018-08-02T21:52:56.631Z,35.80
2018-08-02T21:55:24.825Z,35.90
2018-08-02T21:57:52.954Z,35.90
2018-08-02T22:00:26.816Z,36.00
2018-08-02T22:02:54.954Z,35.90
2018-08-02T22:05:23.064Z,36.00
2018-08-02T22:07:51.212Z,36.10
2018-08-02T22:10:19.330Z,37.50
2018-08-02T22:12:52.836Z,38.50
2018-08-02T22:15:26.452Z,38.90
2018-08-02T22:17:54.621Z,39.40
2018-08-02T22:20:22.830Z,40.10
2018-08-02T22:22:51.004Z,40.10
2018-08-02T22:25:19.356Z,40.30
2018-08-02T22:27:47.549Z,41.00
2018-08-02T22:30:15.786Z,41.00
2018-08-02T22:32:43.939Z,41.10
2018-08-02T22:35:12.138Z,41.30
2018-08-02T22:37:40.621Z,41.20
2018-08-02T22:40:08.781Z,41.40
2018-08-02T22:42:36.987Z,41.60
2018-08-02T22:45:05.390Z,41.70
2018-08-02T22:47:33.625Z,41.70
2018-08-02T22:50:01.813Z,41.70
2018-08-02T22:52:30.110Z,41.80
2018-08-02T22:54:58.350Z,41.60
2018-08-02T22:57:26.550Z,41.90
2018-08-02T22:59:54.734Z,42.30
2018-08-02T23:02:22.927Z,42.50
2018-08-02T23:04:51.095Z,42.50
2018-08-02T23:07:19.259Z,42.40
2018-08-02T23:09:47.449Z,42.60
2018-08-02T23:12:15.614Z,42.80
2018-08-02T23:14:43.796Z,43.20
2018-08-02T23:17:11.976Z,43.40
2018-08-02T23:19:40.129Z,43.20
2018-08-02T23:22:08.272Z,43.40
2018-08-02T23:24:36.413Z,43.50
2018-08-02T23:27:04.616Z,43.70
2018-08-02T23:29:32.776Z,43.90
2018-08-02T23:32:00.970Z,43.80
2018-08-02T23:34:29.072Z,44.10
2018-08-02T23:36:57.224Z,44.30
2018-08-02T23:39:25.389Z,44.40
2018-08-02T23:41:53.535Z,44.00
2018-08-02T23:44:21.732Z,43.50
2018-08-02T23:46:49.896Z,42.90
2018-08-02T23:49:18.069Z,42.40
2018-08-02T23:51:46.204Z,42.10
2018-08-02T23:54:14.427Z,41.90
2018-08-02T23:56:42.657Z,41.70
2018-08-02T23:59:10.932Z,41.50
